Gypsumville, Canada
Current Conditions -  °F | °C
As of 8:31 AM on Monday 20 Oct 2014 (Local Time) from CYDN Reporting Station
Moderate Fog Moderate Fog  
Wind Chill: 30°   Ceiling: 100
Heat Index: 30°   Visibility: 0mi
Dew Point: 30°   Wind: 2mph
Humidity: 100%   Direction: 140°SE
Pressure: 30.02"   Gusts: NA
Location:  51.77°N, 98.62°W
Report Text: CYDN 201331Z AUTO 14002KT 0SM FZFG BKN001 M01/M01 A3002 RMK SLP181
Loading
Personal Weather Stations






























Interactive Weather Map
Tropical Storm Tracking
New forecast layout! Learn more

10-Day Weather Forecast

Advertisements
Track Severe Weather on mobile